createdAt,value
2022-11-05T00:04:20.586Z,10.23
2022-11-05T00:09:12.256Z,10.26
2022-11-05T00:13:55.263Z,10.25
2022-11-05T00:18:38.242Z,10.17
2022-11-05T00:23:21.323Z,10.16
2022-11-05T00:28:04.535Z,10.15
2022-11-05T00:32:47.523Z,10.17
2022-11-05T00:37:30.598Z,10.15
2022-11-05T00:42:13.647Z,10.11
2022-11-05T00:46:59.808Z,10.07
2022-11-05T00:51:42.947Z,10.08
2022-11-05T00:56:25.983Z,10.09
2022-11-05T01:01:09.065Z,10.06
2022-11-05T01:05:52.322Z,9.94
2022-11-05T01:10:35.441Z,9.77
2022-11-05T01:15:18.530Z,9.6
2022-11-05T01:20:01.642Z,9.53
2022-11-05T01:24:44.716Z,9.4
2022-11-05T01:29:27.763Z,9.34
2022-11-05T01:34:10.767Z,9.27
2022-11-05T01:38:53.964Z,9.24
2022-11-05T01:43:37.007Z,9.24
2022-11-05T01:48:22.823Z,9.18
2022-11-05T01:53:05.757Z,9.2
2022-11-05T01:57:49.306Z,9.2
2022-11-05T02:02:32.551Z,9.2
2022-11-05T02:07:16.083Z,9.19
2022-11-05T02:11:59.188Z,9.2
2022-11-05T02:16:42.186Z,9.18
2022-11-05T02:21:25.180Z,9.18
2022-11-05T02:26:08.177Z,9.17
2022-11-05T02:30:51.139Z,9.15
2022-11-05T02:35:34.090Z,9.13
2022-11-05T02:40:17.018Z,9.13
2022-11-05T02:45:03.032Z,9.13
2022-11-05T02:49:46.008Z,9.09
2022-11-05T02:54:28.983Z,9.06
2022-11-05T02:59:12.077Z,9.08
2022-11-05T03:03:55.103Z,9.14
2022-11-05T03:08:38.064Z,9.12
2022-11-05T03:13:20.982Z,9.08
2022-11-05T03:18:03.948Z,9.08
2022-11-05T03:22:46.917Z,9.07
2022-11-05T03:27:29.857Z,9.05
2022-11-05T03:32:12.846Z,9.03
2022-11-05T03:36:55.834Z,9.06
2022-11-05T03:41:39.185Z,9.04
2022-11-05T03:46:22.192Z,9.04
2022-11-05T03:51:05.168Z,9.02
2022-11-05T03:55:51.213Z,9.03
2022-11-05T04:00:34.260Z,9.03
2022-11-05T04:05:17.285Z,8.96
2022-11-05T04:10:00.330Z,9.03
2022-11-05T04:14:43.398Z,9.03
2022-11-05T04:19:26.380Z,9.04
2022-11-05T04:24:09.307Z,9.01
2022-11-05T04:28:52.277Z,8.98
2022-11-05T04:33:35.234Z,9.01
2022-11-05T04:38:19.346Z,8.96
2022-11-05T04:43:02.463Z,8.99
2022-11-05T04:47:45.421Z,8.98
2022-11-05T04:52:28.400Z,8.99
2022-11-05T04:57:11.376Z,8.91
2022-11-05T05:01:54.315Z,8.84
2022-11-05T05:06:37.489Z,8.87
2022-11-05T05:11:20.389Z,8.87
2022-11-05T05:16:03.351Z,8.86
2022-11-05T05:20:46.374Z,8.83
2022-11-05T05:25:29.327Z,8.83
2022-11-05T05:30:12.254Z,8.84
2022-11-05T05:34:55.201Z,8.86
2022-11-05T05:39:38.319Z,8.9
2022-11-05T05:44:21.254Z,8.91
2022-11-05T05:49:07.953Z,8.91
2022-11-05T05:53:54.857Z,8.87
2022-11-05T05:58:37.906Z,8.9
2022-11-05T06:03:20.802Z,8.95
2022-11-05T06:08:03.748Z,8.96
2022-11-05T06:12:46.685Z,8.97
2022-11-05T06:17:29.605Z,8.98
2022-11-05T06:22:12.563Z,9.01
2022-11-05T06:26:55.512Z,9
2022-11-05T06:31:38.464Z,9.03
2022-11-05T06:36:21.471Z,9.02
2022-11-05T06:41:08.965Z,9.05
2022-11-05T06:45:53.274Z,9.12
2022-11-05T06:50:36.236Z,9.07
2022-11-05T06:55:19.208Z,9.12
2022-11-05T07:00:05.890Z,9.12
2022-11-05T07:04:50.884Z,9.15
2022-11-05T07:09:33.863Z,9.15
2022-11-05T07:14:16.844Z,9.14
2022-11-05T07:18:59.830Z,9.19
2022-11-05T07:23:42.877Z,9.2
2022-11-05T07:28:25.872Z,9.2
2022-11-05T07:33:09.192Z,9.2
2022-11-05T07:37:53.571Z,9.25
2022-11-05T07:42:36.559Z,9.29
2022-11-05T07:47:19.418Z,9.34
2022-11-05T07:52:02.543Z,9.4
2022-11-05T07:56:45.472Z,9.5
2022-11-05T08:01:28.672Z,9.52
2022-11-05T08:06:12.485Z,9.55
2022-11-05T08:10:55.442Z,9.65
2022-11-05T08:15:38.457Z,9.65
2022-11-05T08:20:22.550Z,9.72
2022-11-05T08:25:06.879Z,9.82
2022-11-05T08:29:52.571Z,9.95
2022-11-05T08:34:35.519Z,9.99
2022-11-05T08:39:18.449Z,10.01
2022-11-05T08:44:01.468Z,10.05
2022-11-05T08:48:44.518Z,10.14
2022-11-05T08:53:27.605Z,10.18
2022-11-05T08:58:11.040Z,10.22
2022-11-05T09:02:54.784Z,10.24
2022-11-05T09:07:39.027Z,10.29
2022-11-05T09:12:22.202Z,10.37
2022-11-05T09:17:05.462Z,10.39
2022-11-05T09:21:48.574Z,10.51
2022-11-05T09:26:31.687Z,10.62
2022-11-05T09:31:14.775Z,10.73
2022-11-05T09:35:57.927Z,10.73
2022-11-05T09:40:41.226Z,10.8
2022-11-05T09:45:24.319Z,10.83
2022-11-05T09:50:07.467Z,10.89
2022-11-05T09:54:52.747Z,10.8
2022-11-05T09:59:35.675Z,10.81
2022-11-05T10:04:18.966Z,10.94
2022-11-05T10:09:02.298Z,11.07
2022-11-05T10:13:45.411Z,11.06
2022-11-05T10:18:28.532Z,10.93
2022-11-05T10:23:11.812Z,10.9
2022-11-05T10:27:56.098Z,11.03
2022-11-05T10:32:39.586Z,11.15
2022-11-05T10:37:22.654Z,11.24
2022-11-05T10:42:05.736Z,11.42
2022-11-05T10:46:48.801Z,11.48
2022-11-05T10:51:31.817Z,11.61
2022-11-05T10:56:14.849Z,11.58
2022-11-05T11:00:57.878Z,11.95
2022-11-05T11:05:41.182Z,12.07
2022-11-05T11:10:24.575Z,12.21
2022-11-05T11:15:07.611Z,12.19
2022-11-05T11:19:50.617Z,12.01
2022-11-05T11:24:33.748Z,11.82
2022-11-05T11:29:17.355Z,11.88
2022-11-05T11:34:00.409Z,11.71
2022-11-05T11:38:43.451Z,11.72
2022-11-05T11:43:26.505Z,11.83
2022-11-05T11:48:09.576Z,11.84
2022-11-05T11:52:52.655Z,11.92
2022-11-05T11:57:35.674Z,11.94
2022-11-05T12:02:18.862Z,11.96
2022-11-05T12:07:02.449Z,11.98
2022-11-05T12:11:45.378Z,11.88
2022-11-05T12:16:28.436Z,11.98
2022-11-05T12:21:11.675Z,12.26
2022-11-05T12:25:54.882Z,12.51
2022-11-05T12:30:37.963Z,12.95
2022-11-05T12:35:20.955Z,12.82
2022-11-05T12:40:03.910Z,12.53
2022-11-05T12:44:47.723Z,12.44
2022-11-05T12:49:30.718Z,12.44
2022-11-05T12:54:13.729Z,12.56
2022-11-05T12:58:56.721Z,12.69
2022-11-05T13:03:39.882Z,12.65
2022-11-05T13:08:23.444Z,12.49
2022-11-05T13:13:06.783Z,12.5
2022-11-05T13:17:50.152Z,12.44
2022-11-05T13:22:33.333Z,12.34
2022-11-05T13:27:17.843Z,12.09
2022-11-05T13:32:01.172Z,11.91
2022-11-05T13:36:44.533Z,11.79
2022-11-05T13:41:29.341Z,11.75
2022-11-05T13:46:12.412Z,11.72
2022-11-05T13:50:55.739Z,11.71
2022-11-05T13:55:41.473Z,11.67
2022-11-05T14:00:25.023Z,11.62
2022-11-05T14:05:08.630Z,11.51
2022-11-05T14:09:51.933Z,11.47
2022-11-05T14:14:37.351Z,11.39
2022-11-05T14:19:20.660Z,11.32
2022-11-05T14:24:03.914Z,11.32
2022-11-05T14:28:46.995Z,11.34
2022-11-05T14:33:30.372Z,11.29
2022-11-05T14:38:13.471Z,11.27
2022-11-05T14:42:56.550Z,11.27
2022-11-05T14:47:39.636Z,11.25
2022-11-05T14:52:22.699Z,11.24
2022-11-05T14:57:05.980Z,11.2
2022-11-05T15:01:49.146Z,11.08
2022-11-05T15:06:32.665Z,11.01
2022-11-05T15:11:15.651Z,10.91
2022-11-05T15:15:58.681Z,10.77
2022-11-05T15:20:41.737Z,10.71
2022-11-05T15:25:24.763Z,10.62
2022-11-05T15:30:08.000Z,10.57
2022-11-05T15:34:51.032Z,10.54
2022-11-05T15:39:34.402Z,10.42
2022-11-05T15:44:18.131Z,10.3
2022-11-05T15:49:01.350Z,10.22
2022-11-05T15:54:02.097Z,10.2
2022-11-05T15:59:12.660Z,10.13
2022-11-05T16:08:56.433Z,9.99
2022-11-05T16:13:39.528Z,9.95
2022-11-05T16:18:22.550Z,9.96
2022-11-05T16:23:06.185Z,9.87
2022-11-05T16:27:49.167Z,9.85
2022-11-05T16:32:32.207Z,9.73
2022-11-05T16:37:15.274Z,9.67
2022-11-05T16:41:58.257Z,9.57
2022-11-05T16:46:41.518Z,9.53
2022-11-05T16:51:27.310Z,9.49
2022-11-05T16:56:10.484Z,9.4
2022-11-05T17:00:53.430Z,9.34
2022-11-05T17:05:36.407Z,9.31
2022-11-05T17:10:19.499Z,9.26
2022-11-05T17:15:02.580Z,9.21
2022-11-05T17:19:45.592Z,9.19
2022-11-05T17:24:28.614Z,9.08
2022-11-05T17:29:11.796Z,9.02
2022-11-05T17:33:54.804Z,8.97
2022-11-05T17:38:37.841Z,8.94
2022-11-05T17:43:20.926Z,8.89
2022-11-05T17:48:04.027Z,8.82
2022-11-05T17:52:47.063Z,8.75
2022-11-05T17:57:30.032Z,8.72
2022-11-05T18:02:13.079Z,8.65
2022-11-05T18:06:56.445Z,8.55
2022-11-05T18:11:39.405Z,8.53
2022-11-05T18:16:23.564Z,8.44
2022-11-05T18:21:07.441Z,8.39
2022-11-05T18:25:50.579Z,8.33
2022-11-05T18:30:33.687Z,8.26
2022-11-05T18:35:17.449Z,8.21
2022-11-05T18:40:00.590Z,8.19
2022-11-05T18:44:44.795Z,8.16
2022-11-05T18:49:27.907Z,8.1
2022-11-05T18:54:11.093Z,8.06
2022-11-05T18:59:08.565Z,8.03
2022-11-05T19:04:22.045Z,7.96
2022-11-05T19:09:07.876Z,7.98
2022-11-05T19:13:51.026Z,7.95
2022-11-05T19:18:34.180Z,7.9
2022-11-05T19:23:17.704Z,7.85
2022-11-05T19:28:00.890Z,7.81
2022-11-05T19:32:46.566Z,7.73
2022-11-05T19:37:29.738Z,7.68
2022-11-05T19:42:13.338Z,7.65
2022-11-05T19:46:56.492Z,7.64
2022-11-05T19:51:42.519Z,7.57
2022-11-05T19:56:26.234Z,7.49
2022-11-05T20:01:09.431Z,7.41
2022-11-05T20:05:52.908Z,7.34
2022-11-05T20:10:35.925Z,7.27
2022-11-05T20:15:19.295Z,7.29
2022-11-05T20:20:02.323Z,7.32
2022-11-05T20:24:45.330Z,7.25
2022-11-05T20:29:34.909Z,7.16
2022-11-05T20:34:18.325Z,7.07
2022-11-05T20:39:01.304Z,7.01
2022-11-05T20:43:44.335Z,6.91
2022-11-05T20:48:27.293Z,6.85
2022-11-05T20:53:10.318Z,6.77
2022-11-05T20:57:53.321Z,6.71
2022-11-05T21:02:36.350Z,6.67
2022-11-05T21:07:19.984Z,6.62
2022-11-05T21:12:03.284Z,6.57
2022-11-05T21:16:46.313Z,6.51
2022-11-05T21:21:29.323Z,6.46
2022-11-05T21:26:12.483Z,6.46
2022-11-05T21:30:55.456Z,6.41
2022-11-05T21:35:38.428Z,6.38
2022-11-05T21:40:21.654Z,6.34
2022-11-05T21:45:04.915Z,6.3
2022-11-05T21:49:48.073Z,6.29
2022-11-05T21:54:31.151Z,6.26
2022-11-05T21:59:14.222Z,6.21
2022-11-05T22:04:01.866Z,6.16
2022-11-05T22:08:46.136Z,6.13
2022-11-05T22:13:29.279Z,6.09
2022-11-05T22:18:12.551Z,6.07
2022-11-05T22:22:56.846Z,6.07
2022-11-05T22:27:39.884Z,6.06
2022-11-05T22:32:22.968Z,6.02
2022-11-05T22:37:06.029Z,5.97
2022-11-05T22:41:49.067Z,5.92
2022-11-05T22:46:32.272Z,5.9
2022-11-05T22:51:15.288Z,5.85
2022-11-05T22:55:58.737Z,5.8
2022-11-05T23:00:41.778Z,5.72
2022-11-05T23:05:24.799Z,5.7
2022-11-05T23:10:08.945Z,5.59
2022-11-05T23:14:51.991Z,5.52
2022-11-05T23:19:34.966Z,5.52
2022-11-05T23:24:18.111Z,5.53
2022-11-05T23:29:01.099Z,5.4
2022-11-05T23:33:44.180Z,5.38
2022-11-05T23:38:27.183Z,5.41
2022-11-05T23:43:10.118Z,5.42
2022-11-05T23:47:53.324Z,5.36
2022-11-05T23:52:36.301Z,5.4
2022-11-05T23:57:19.224Z,5.4
